DUNK1: Neosho River Nr Dunlap, KS

Data processed at Tue May 21 2019 23:50


All information presented herein is the property of the government of the United States of America and may be revised or deleted at any time without prior notice.
Dissemination of this information without the expressed written consent of the Public Affairs Office, Tulsa District U.S. Army Corps of Engineers is strictly prohibited.
These data are gathered electronically and, as presented, have not undergone any form of quality control. These data are not guaranteed to be valid or correct.
Go to home page.
Go to station list.
Go to home page.

Upstream stations:

Downstream station:
Previous Day
Next Day
Current Day
    
SHEF ID:       DUNK1     NEOSHO R NR DUNLAP, KS
STATION TYPE:  
Regulating: Stage =    26.00, Flow =     5679

               PRECIP     STAGE  RIV-FLOW  BAT-LOAD
                   in        ft       cfs      volt
              Ccp-Rev   Ccp-Rev   Ccp-Rev   Ccp-Rev
(US/Central)
05/21 00:00      0.09     22.79      3495     12.65
05/21 01:00      0.00     22.70      3446     12.65
05/21 02:00      0.01     22.39      3313     12.65
05/21 03:00      0.00     22.28      3267     12.65
05/21 04:00      0.00     21.93      3123     12.65
05/21 05:00      0.06     21.86      3094     12.65
05/21 06:00      0.21     21.53      2963     12.65
05/21 07:00      0.31     21.62      2998     12.65
05/21 08:00      0.30     21.49      2947     12.65
05/21 09:00      0.17     21.62      2998     12.65
05/21 10:00      0.09     21.49      2947     12.65
05/21 11:00      0.05     21.47      2940     12.77
05/21 12:00      0.00     21.50      2951     13.12
05/21 13:00      0.02     21.40      2912     13.00
05/21 14:00      0.00     21.51      2955     13.30
05/21 15:00      0.00     21.65      3010     13.24
05/21 16:00      0.00     21.80      3070     13.53
05/21 17:00      0.00     22.01      3155     13.36
05/21 18:00      0.00     22.20      3234     13.24
05/21 19:00      0.00     22.13      3205     13.00
05/21 20:00      0.00     22.21      3238     13.00
05/21 21:00      0.00     22.01      3155     12.89
05/21 22:00      0.00     22.00      3151     12.89
05/21 23:00      0.00     21.74      3046     12.83